createdAt,value
2022-11-10T08:20:44.772Z,4.00
2022-11-10T08:26:24.733Z,4.70
2022-11-10T08:31:45.952Z,3.97
2022-11-10T08:37:06.943Z,4.60
2022-11-10T08:42:28.112Z,4.50
2022-11-10T08:47:56.126Z,4.70
2022-11-10T08:53:20.554Z,4.30
2022-11-10T08:58:50.199Z,3.83
2022-11-10T09:04:15.940Z,3.80
2022-11-10T09:09:37.208Z,4.17
2022-11-10T09:14:58.294Z,3.57
2022-11-10T09:20:19.969Z,2.97
2022-11-10T09:25:42.230Z,3.23
2022-11-10T09:31:03.345Z,3.10
2022-11-10T09:36:24.896Z,2.90
2022-11-10T09:41:47.268Z,3.00
2022-11-10T09:47:55.550Z,3.13
2022-11-10T09:53:20.856Z,2.50
2022-11-10T09:58:44.167Z,2.47
2022-11-10T10:04:24.176Z,3.00
2022-11-10T10:10:00.479Z,2.20
2022-11-10T10:15:48.696Z,3.03
2022-11-10T10:21:38.902Z,2.53
2022-11-10T10:27:04.382Z,2.67
2022-11-10T10:32:28.092Z,2.40
2022-11-10T10:37:50.603Z,2.53
2022-11-10T10:43:13.118Z,2.93
2022-11-10T10:48:34.324Z,2.50
2022-11-10T10:53:55.498Z,2.40
2022-11-10T10:59:24.567Z,2.90
2022-11-10T11:04:45.828Z,2.83
2022-11-10T11:10:28.892Z,2.57
2022-11-10T11:16:05.383Z,2.70
2022-11-10T11:21:37.278Z,2.90
2022-11-10T11:27:09.750Z,2.67
2022-11-10T11:32:51.813Z,2.80
2022-11-10T11:38:40.894Z,2.87
2022-11-10T11:44:16.920Z,2.57
2022-11-10T11:50:22.742Z,2.87
2022-11-10T11:56:19.877Z,2.60
2022-11-10T12:02:04.341Z,2.60
2022-11-10T12:07:47.570Z,2.60
2022-11-10T12:13:50.953Z,2.77
2022-11-10T12:19:15.257Z,2.70
2022-11-10T12:24:51.523Z,2.40
2022-11-10T12:30:15.176Z,2.37
2022-11-10T12:35:41.588Z,2.57
2022-11-10T12:41:11.324Z,2.60
2022-11-10T12:46:32.432Z,2.40
2022-11-10T12:52:16.793Z,2.10
2022-11-10T12:57:38.444Z,2.40
2022-11-10T13:03:00.453Z,2.47
2022-11-10T13:08:32.968Z,1.90
2022-11-10T13:14:00.330Z,2.50
2022-11-10T13:19:21.745Z,2.10
2022-11-10T13:24:44.585Z,2.20
2022-11-10T13:30:10.176Z,2.33
2022-11-10T13:35:37.312Z,2.20
2022-11-10T13:41:18.756Z,2.47
2022-11-10T13:46:53.969Z,2.17
2022-11-10T13:52:26.980Z,2.13
2022-11-10T13:58:40.388Z,2.37
2022-11-10T14:04:03.225Z,2.87
2022-11-10T14:09:35.175Z,3.40
2022-11-10T14:15:03.573Z,3.10
2022-11-10T14:20:27.316Z,3.00
2022-11-10T14:26:03.678Z,2.27
2022-11-10T14:31:26.339Z,2.70
2022-11-10T14:36:52.445Z,2.80
2022-11-10T14:42:20.768Z,2.30
2022-11-10T14:47:42.638Z,2.20
2022-11-10T14:53:31.598Z,2.60
2022-11-10T14:58:53.351Z,2.67
2022-11-10T15:04:16.032Z,2.90
2022-11-10T15:09:37.547Z,2.87
2022-11-10T15:15:00.615Z,2.77
2022-11-10T15:20:31.748Z,2.67
2022-11-10T15:25:53.501Z,2.80
2022-11-10T15:31:25.412Z,2.73
2022-11-10T15:36:46.819Z,3.17
2022-11-10T15:42:15.286Z,3.63
2022-11-10T15:47:36.790Z,3.93
2022-11-10T15:52:58.432Z,3.57
2022-11-10T15:58:24.020Z,3.53
2022-11-10T16:03:45.905Z,4.97
2022-11-10T16:09:07.979Z,4.20
2022-11-10T16:14:29.614Z,4.43
2022-11-10T16:19:52.759Z,4.57
2022-11-10T16:25:21.534Z,4.27
2022-11-10T16:30:45.992Z,4.60
2022-11-10T16:36:23.652Z,4.63
2022-11-10T16:41:45.312Z,5.60
2022-11-10T16:47:13.543Z,6.03
2022-11-10T16:52:34.911Z,5.60
2022-11-10T16:57:56.046Z,5.27
2022-11-10T17:03:37.094Z,5.00
2022-11-10T17:09:08.280Z,5.40
2022-11-10T17:14:29.684Z,6.50
2022-11-10T17:19:54.219Z,6.00
2022-11-10T17:25:31.340Z,5.67
2022-11-10T17:30:53.111Z,5.53
2022-11-10T17:36:19.862Z,4.70
2022-11-10T17:41:41.339Z,5.40
2022-11-10T17:47:03.072Z,5.70
2022-11-10T17:52:24.145Z,5.30
2022-11-10T17:57:45.818Z,5.87
2022-11-10T18:03:10.365Z,5.77
2022-11-10T18:08:31.433Z,6.87
2022-11-10T18:13:52.857Z,6.40
2022-11-10T18:19:14.099Z,6.73
2022-11-10T18:24:35.268Z,6.87
2022-11-10T18:29:56.334Z,6.63
2022-11-10T18:35:18.005Z,7.07
2022-11-10T18:40:39.510Z,7.70
2022-11-10T18:46:00.454Z,7.03
2022-11-10T18:51:21.811Z,7.00
2022-11-10T18:56:42.804Z,7.37
2022-11-10T19:02:04.164Z,7.40
2022-11-10T19:07:26.013Z,7.40
2022-11-10T19:12:47.171Z,7.90
2022-11-10T19:18:08.620Z,7.47
2022-11-10T19:23:29.626Z,7.93
2022-11-10T19:28:53.482Z,7.93
2022-11-10T19:34:18.623Z,7.03
2022-11-10T19:39:39.961Z,6.97
2022-11-10T19:45:01.715Z,7.10
2022-11-10T19:50:23.239Z,7.70
2022-11-10T19:55:44.378Z,7.30
2022-11-10T20:01:07.014Z,7.30
2022-11-10T20:06:28.324Z,7.93
2022-11-10T20:11:49.496Z,7.10
2022-11-10T20:17:10.593Z,7.60
2022-11-10T20:22:31.727Z,8.03
2022-11-10T20:27:56.171Z,7.77
2022-11-10T20:33:17.430Z,7.60
2022-11-10T20:38:38.805Z,7.57
2022-11-10T20:43:59.993Z,8.37
2022-11-10T20:49:21.316Z,7.23
2022-11-10T20:54:43.808Z,8.10
2022-11-10T21:00:05.431Z,8.30
2022-11-10T21:05:26.864Z,8.03
2022-11-10T21:10:56.427Z,8.27
2022-11-10T21:16:17.647Z,7.50
2022-11-10T21:21:39.257Z,7.60
2022-11-10T21:27:00.695Z,7.90
2022-11-10T21:32:22.615Z,8.00
2022-11-10T21:37:43.844Z,7.20
2022-11-10T21:43:04.897Z,7.47
2022-11-10T21:48:25.949Z,7.47
2022-11-10T21:53:47.476Z,7.03
2022-11-10T21:59:08.736Z,7.13
